createdAt,value
2018-05-02T00:01:55.673Z,8.10
2018-05-02T00:04:24.051Z,7.90
2018-05-02T00:06:52.275Z,7.80
2018-05-02T00:09:19.726Z,7.80
2018-05-02T00:11:47.187Z,7.70
2018-05-02T00:14:15.394Z,7.40
2018-05-02T00:16:42.854Z,7.40
2018-05-02T00:19:10.306Z,7.40
2018-05-02T00:21:38.553Z,7.40
2018-05-02T00:24:06.000Z,7.40
2018-05-02T00:26:33.458Z,7.40
2018-05-02T00:29:00.909Z,7.40
2018-05-02T00:31:28.364Z,7.30
2018-05-02T00:33:56.582Z,7.50
2018-05-02T00:36:24.138Z,7.50
2018-05-02T00:38:51.597Z,7.40
2018-05-02T00:41:19.814Z,7.40
2018-05-02T00:43:47.273Z,7.40
2018-05-02T00:46:14.717Z,7.40
2018-05-02T00:48:54.671Z,7.30
2018-05-02T00:51:22.193Z,7.30
2018-05-02T00:53:49.805Z,7.40
2018-05-02T00:56:17.249Z,7.40
2018-05-02T00:58:44.716Z,7.40
2018-05-02T01:01:12.248Z,7.50
2018-05-02T01:03:40.456Z,7.60
2018-05-02T01:06:07.910Z,7.60
2018-05-02T01:08:35.368Z,7.60
2018-05-02T01:11:02.808Z,7.60
2018-05-02T01:13:30.269Z,7.50
2018-05-02T01:15:57.721Z,7.40
2018-05-02T01:18:25.172Z,7.50
2018-05-02T01:20:52.620Z,7.40
2018-05-02T01:23:20.086Z,7.40
2018-05-02T01:25:47.565Z,7.40
2018-05-02T01:28:15.068Z,7.40
2018-05-02T01:30:42.513Z,7.40
2018-05-02T01:33:09.981Z,7.50
2018-05-02T01:35:37.445Z,7.50
2018-05-02T01:38:04.918Z,7.50
2018-05-02T01:40:32.373Z,7.60
2018-05-02T01:42:59.845Z,7.70
2018-05-02T01:45:27.291Z,7.60
2018-05-02T01:47:55.513Z,7.40
2018-05-02T01:50:22.952Z,7.40
2018-05-02T01:52:50.420Z,7.30
2018-05-02T01:55:17.961Z,7.20
2018-05-02T01:57:45.416Z,7.20
2018-05-02T02:00:12.862Z,7.20
2018-05-02T02:02:40.326Z,7.20
2018-05-02T02:05:07.764Z,7.30
2018-05-02T02:07:35.232Z,7.20
2018-05-02T02:10:03.450Z,7.20
2018-05-02T02:12:30.919Z,7.20
2018-05-02T02:14:58.364Z,7.20
2018-05-02T02:17:25.825Z,7.30
2018-05-02T02:19:54.050Z,7.20
2018-05-02T02:22:21.509Z,7.20
2018-05-02T02:24:48.952Z,7.00
2018-05-02T02:27:16.413Z,7.00
2018-05-02T02:29:44.625Z,6.90
2018-05-02T02:32:12.086Z,6.90
2018-05-02T02:34:39.537Z,6.80
2018-05-02T02:37:07.765Z,6.70
2018-05-02T02:39:35.215Z,6.60
2018-05-02T02:42:02.682Z,6.60
2018-05-02T02:44:30.128Z,6.60
2018-05-02T02:46:58.349Z,6.50
2018-05-02T02:49:25.788Z,6.50
2018-05-02T02:51:54.108Z,6.50
2018-05-02T02:54:21.553Z,6.50
2018-05-02T02:56:49.006Z,6.60
2018-05-02T02:59:16.472Z,6.60
2018-05-02T03:01:44.686Z,6.60
2018-05-02T03:04:12.144Z,6.60
2018-05-02T03:06:39.597Z,6.70
2018-05-02T03:09:07.825Z,6.60
2018-05-02T03:11:35.278Z,6.60
2018-05-02T03:14:02.768Z,6.50
2018-05-02T03:16:30.221Z,6.50
2018-05-02T03:18:57.678Z,6.50
2018-05-02T03:21:25.893Z,6.50
2018-05-02T03:23:53.358Z,6.50
2018-05-02T03:26:20.800Z,6.70
2018-05-02T03:28:48.252Z,6.60
2018-05-02T03:31:16.465Z,6.80
2018-05-02T03:33:44.012Z,6.80
2018-05-02T03:36:12.957Z,6.80
2018-05-02T03:38:40.420Z,6.70
2018-05-02T03:41:08.656Z,6.70
2018-05-02T03:43:36.102Z,6.60
2018-05-02T03:46:03.597Z,6.50
2018-05-02T03:48:31.048Z,6.50
2018-05-02T03:50:58.520Z,6.50
2018-05-02T03:53:25.962Z,6.50
2018-05-02T03:55:53.421Z,6.50
2018-05-02T03:58:20.940Z,6.40
2018-05-02T04:01:00.656Z,6.40
2018-05-02T04:06:56.933Z,6.50
2018-05-02T04:09:24.492Z,6.50
2018-05-02T04:11:51.948Z,6.60
2018-05-02T04:14:19.397Z,6.60
2018-05-02T04:16:47.612Z,6.90
2018-05-02T04:19:15.060Z,6.90
2018-05-02T04:21:43.284Z,6.90
2018-05-02T04:24:10.724Z,6.90
2018-05-02T04:26:38.960Z,6.90
2018-05-02T04:29:06.421Z,6.90
2018-05-02T04:31:33.877Z,7.00
2018-05-02T04:34:01.332Z,7.10
2018-05-02T04:36:28.812Z,7.30
2018-05-02T04:38:56.261Z,7.30
2018-05-02T04:41:23.715Z,7.30
2018-05-02T04:43:51.937Z,7.30
2018-05-02T04:46:19.488Z,7.30
2018-05-02T04:48:46.928Z,7.30
2018-05-02T04:51:14.393Z,7.30
2018-05-02T04:53:41.898Z,7.30
2018-05-02T04:56:09.344Z,7.40
2018-05-02T04:58:37.572Z,7.60
2018-05-02T05:01:05.025Z,7.60
2018-05-02T05:03:32.484Z,7.50
2018-05-02T05:05:59.936Z,7.50
2018-05-02T05:08:28.196Z,7.60
2018-05-02T05:10:55.741Z,7.60
2018-05-02T05:13:23.212Z,7.50
2018-05-02T05:15:50.661Z,7.60
2018-05-02T05:18:18.129Z,7.70
2018-05-02T05:20:45.580Z,7.70
2018-05-02T05:23:13.044Z,7.70
2018-05-02T05:25:41.260Z,7.70
2018-05-02T05:28:08.758Z,7.70
2018-05-02T05:30:36.173Z,7.70
2018-05-02T05:33:04.396Z,7.70
2018-05-02T05:35:31.844Z,7.70
2018-05-02T05:37:59.301Z,7.60
2018-05-02T05:40:27.520Z,7.60
2018-05-02T05:42:54.984Z,7.60
2018-05-02T05:45:22.453Z,7.60
2018-05-02T05:47:49.916Z,7.80
2018-05-02T05:50:17.443Z,7.80
2018-05-02T05:52:45.692Z,7.80
2018-05-02T05:55:13.177Z,7.80
2018-05-02T05:57:40.633Z,7.80
2018-05-02T06:00:08.093Z,8.00
2018-05-02T06:02:35.549Z,8.00
2018-05-02T06:05:03.013Z,8.00
2018-05-02T06:07:30.460Z,8.10
2018-05-02T06:09:58.792Z,8.10
2018-05-02T06:12:26.244Z,8.20
2018-05-02T06:14:53.713Z,8.30
2018-05-02T06:17:21.165Z,8.30
2018-05-02T06:19:48.620Z,8.30
2018-05-02T06:22:16.842Z,8.40
2018-05-02T06:24:45.210Z,8.60
2018-05-02T06:27:13.412Z,8.60
2018-05-02T06:29:40.867Z,8.50
2018-05-02T06:32:08.342Z,8.60
2018-05-02T06:34:35.796Z,8.70
2018-05-02T06:37:04.024Z,8.70
2018-05-02T06:39:31.481Z,8.70
2018-05-02T06:41:58.936Z,8.80
2018-05-02T06:44:26.397Z,8.80
2018-05-02T06:46:54.608Z,9.00
2018-05-02T06:49:22.198Z,9.10
2018-05-02T06:51:49.757Z,9.20
2018-05-02T06:54:17.216Z,9.30
2018-05-02T06:56:44.668Z,9.50
2018-05-02T06:59:12.136Z,9.70
2018-05-02T07:01:39.653Z,9.80
2018-05-02T07:04:08.152Z,9.80
2018-05-02T07:06:35.609Z,9.80
2018-05-02T07:09:03.182Z,9.90
2018-05-02T07:11:30.630Z,9.90
2018-05-02T07:13:58.101Z,9.90
2018-05-02T07:16:25.602Z,9.90
2018-05-02T07:18:53.077Z,10.00
2018-05-02T07:21:21.336Z,10.10
2018-05-02T07:23:48.809Z,10.10
2018-05-02T07:26:16.260Z,10.20
2018-05-02T07:28:43.723Z,10.30
2018-05-02T07:31:11.181Z,10.40
2018-05-02T07:33:38.648Z,10.60
2018-05-02T07:36:06.100Z,10.70
2018-05-02T07:38:34.328Z,10.80
2018-05-02T07:41:01.783Z,10.80
2018-05-02T07:43:29.240Z,10.80
2018-05-02T07:45:56.699Z,10.90
2018-05-02T07:48:24.925Z,11.20
2018-05-02T07:50:52.372Z,11.10
2018-05-02T07:53:20.840Z,11.20
2018-05-02T07:55:49.060Z,11.20
2018-05-02T07:58:16.523Z,11.30
2018-05-02T08:00:43.976Z,11.40
2018-05-02T08:03:12.180Z,11.60
2018-05-02T08:05:39.654Z,11.50
2018-05-02T08:08:07.101Z,11.70
2018-05-02T08:10:35.324Z,11.80
2018-05-02T08:13:02.778Z,11.80
2018-05-02T08:15:30.243Z,11.80
2018-05-02T08:17:57.680Z,11.90
2018-05-02T08:20:25.904Z,12.20
2018-05-02T08:22:53.366Z,12.20
2018-05-02T08:25:21.576Z,12.20
2018-05-02T08:27:49.024Z,12.10
2018-05-02T08:30:16.480Z,12.20
2018-05-02T08:32:43.929Z,12.30
2018-05-02T08:35:11.375Z,12.40
2018-05-02T08:37:38.832Z,12.40
2018-05-02T08:40:06.288Z,12.40
2018-05-02T08:42:33.744Z,12.40
2018-05-02T08:45:01.192Z,12.40
2018-05-02T08:47:28.645Z,12.40
2018-05-02T08:49:56.944Z,12.60
2018-05-02T08:52:24.316Z,12.50
2018-05-02T08:54:52.536Z,12.70
2018-05-02T08:57:20.031Z,12.70
2018-05-02T08:59:47.436Z,12.80
2018-05-02T09:02:15.651Z,13.00
2018-05-02T09:04:43.112Z,13.00
2018-05-02T09:07:10.573Z,13.20
2018-05-02T09:09:38.786Z,13.40
2018-05-02T09:12:06.236Z,13.40
2018-05-02T09:14:33.687Z,13.50
2018-05-02T09:17:01.896Z,13.50
2018-05-02T09:19:29.358Z,13.50
2018-05-02T09:21:56.805Z,13.60
2018-05-02T09:24:25.034Z,13.70
2018-05-02T09:26:52.488Z,13.60
2018-05-02T09:29:19.945Z,13.70
2018-05-02T09:31:47.388Z,13.70
2018-05-02T09:34:15.619Z,14.10
2018-05-02T09:36:43.061Z,14.10
2018-05-02T09:39:10.524Z,14.10
2018-05-02T09:41:38.741Z,14.20
2018-05-02T09:44:06.277Z,14.20
2018-05-02T09:46:33.644Z,14.20
2018-05-02T09:49:01.866Z,14.50
2018-05-02T09:51:29.307Z,14.50
2018-05-02T09:53:57.536Z,14.60
2018-05-02T09:56:24.976Z,14.60
2018-05-02T09:58:52.440Z,14.70
2018-05-02T10:01:19.884Z,14.90
2018-05-02T10:03:48.108Z,15.10
2018-05-02T10:06:15.557Z,15.10
2018-05-02T10:08:43.000Z,15.10
2018-05-02T10:11:10.459Z,15.10
2018-05-02T10:13:37.900Z,15.10
2018-05-02T10:16:05.356Z,15.20
2018-05-02T10:18:32.805Z,15.30
2018-05-02T10:21:01.740Z,15.40
2018-05-02T10:23:29.185Z,15.40
2018-05-02T10:25:56.642Z,15.50
2018-05-02T10:28:24.088Z,15.50
2018-05-02T10:30:51.543Z,15.60
2018-05-02T10:33:18.990Z,15.80
2018-05-02T10:35:46.455Z,15.90
2018-05-02T10:38:13.896Z,16.10
2018-05-02T10:40:41.344Z,16.10
2018-05-02T10:43:09.586Z,16.20
2018-05-02T10:45:37.027Z,16.20
2018-05-02T10:48:04.590Z,16.30
2018-05-02T10:50:32.881Z,16.50
2018-05-02T10:53:00.236Z,16.50
2018-05-02T10:55:27.721Z,16.50
2018-05-02T10:57:55.177Z,16.50
2018-05-02T11:00:22.632Z,16.50
2018-05-02T11:02:50.849Z,16.60
2018-05-02T11:05:18.305Z,16.60
2018-05-02T11:07:45.748Z,16.50
2018-05-02T11:10:13.968Z,16.70
2018-05-02T11:12:41.419Z,16.70
2018-05-02T11:15:09.639Z,17.10
2018-05-02T11:17:37.085Z,17.00
2018-05-02T11:20:04.540Z,17.10
2018-05-02T11:22:32.752Z,17.00
2018-05-02T11:25:00.211Z,17.00
2018-05-02T11:27:27.665Z,17.10
2018-05-02T11:29:55.880Z,17.20
2018-05-02T11:32:23.324Z,17.20
2018-05-02T11:34:50.788Z,17.10
2018-05-02T11:37:19.004Z,17.20
2018-05-02T11:39:46.464Z,17.20
2018-05-02T11:42:13.905Z,17.30
2018-05-02T11:44:42.124Z,17.40
2018-05-02T11:47:09.564Z,17.40
2018-05-02T11:49:37.788Z,17.40
2018-05-02T11:52:05.233Z,17.40
2018-05-02T11:54:32.688Z,17.60
2018-05-02T11:57:00.900Z,17.70
2018-05-02T11:59:28.360Z,17.60
2018-05-02T12:01:55.812Z,17.60
2018-05-02T12:04:24.035Z,17.70
2018-05-02T12:06:51.484Z,17.70
2018-05-02T12:09:18.936Z,17.70
2018-05-02T12:11:47.152Z,17.80
2018-05-02T12:14:14.932Z,17.70
2018-05-02T12:16:42.389Z,17.90
2018-05-02T12:19:09.836Z,17.80
2018-05-02T12:21:38.056Z,18.00
2018-05-02T12:24:05.496Z,18.00
2018-05-02T12:26:33.717Z,18.00
2018-05-02T12:29:01.164Z,18.00
2018-05-02T12:31:28.624Z,17.90
2018-05-02T12:33:56.064Z,17.80
2018-05-02T12:36:25.029Z,17.80
2018-05-02T12:38:52.473Z,17.80
2018-05-02T12:41:19.940Z,17.70
2018-05-02T12:43:47.384Z,17.70
2018-05-02T12:46:15.641Z,17.60
2018-05-02T12:48:43.083Z,17.60
2018-05-02T12:51:10.540Z,17.60
2018-05-02T12:53:37.987Z,17.70
2018-05-02T12:56:06.333Z,18.00
2018-05-02T12:58:33.653Z,17.90
2018-05-02T13:01:01.118Z,18.20
2018-05-02T13:03:29.328Z,18.30
2018-05-02T13:05:56.785Z,18.30
2018-05-02T13:08:24.252Z,18.40
2018-05-02T13:10:51.700Z,18.40
2018-05-02T13:13:19.913Z,18.30
2018-05-02T13:15:47.373Z,18.30
2018-05-02T13:18:14.816Z,18.20
2018-05-02T13:20:43.040Z,18.20
2018-05-02T13:23:10.483Z,18.20
2018-05-02T13:25:38.705Z,18.20
2018-05-02T13:28:06.154Z,18.20
2018-05-02T13:30:33.609Z,18.20
2018-05-02T13:33:01.835Z,18.00
2018-05-02T13:35:29.308Z,17.90
2018-05-02T13:37:56.756Z,18.00
2018-05-02T13:40:24.217Z,17.90
2018-05-02T13:42:51.664Z,17.90
2018-05-02T13:45:19.884Z,17.80
2018-05-02T13:47:47.352Z,17.80
2018-05-02T13:50:14.829Z,17.90
2018-05-02T13:52:42.267Z,18.00
2018-05-02T13:55:09.740Z,17.90
2018-05-02T13:57:38.059Z,17.70
2018-05-02T14:00:05.520Z,17.70
2018-05-02T14:02:32.965Z,17.60
2018-05-02T14:05:01.185Z,17.50
2018-05-02T14:07:28.636Z,17.50
2018-05-02T14:09:56.079Z,17.50
2018-05-02T14:12:24.311Z,17.60
2018-05-02T14:14:51.776Z,17.60
2018-05-02T14:17:19.245Z,17.60
2018-05-02T14:19:46.777Z,17.60
2018-05-02T14:22:14.991Z,17.40
2018-05-02T14:24:42.515Z,17.40
2018-05-02T14:27:09.924Z,17.40
2018-05-02T14:29:38.116Z,17.40
2018-05-02T14:32:05.577Z,17.40
2018-05-02T14:34:33.028Z,17.50
2018-05-02T14:37:01.256Z,17.60
2018-05-02T14:39:28.705Z,17.60
2018-05-02T14:41:56.156Z,17.60
2018-05-02T14:44:24.373Z,17.50
2018-05-02T14:46:51.829Z,17.50
2018-05-02T14:49:19.289Z,17.50
2018-05-02T14:51:46.740Z,17.50
2018-05-02T14:54:14.953Z,17.80
2018-05-02T14:56:42.414Z,17.80
2018-05-02T14:59:09.864Z,17.90
2018-05-02T15:01:38.167Z,17.80
2018-05-02T15:04:05.551Z,17.70
2018-05-02T15:06:33.004Z,17.80
2018-05-02T15:09:00.449Z,17.80
2018-05-02T15:11:28.674Z,17.80
2018-05-02T15:13:56.120Z,17.70
2018-05-02T15:16:24.626Z,17.70
2018-05-02T15:18:52.083Z,17.70
2018-05-02T15:21:20.376Z,17.70
2018-05-02T15:23:47.820Z,17.60
2018-05-02T15:26:16.044Z,17.50
2018-05-02T15:28:43.525Z,17.50
2018-05-02T15:31:10.984Z,17.40
2018-05-02T15:33:38.437Z,17.40
2018-05-02T15:36:05.898Z,17.50
2018-05-02T15:38:34.107Z,17.40
2018-05-02T15:41:01.564Z,17.30
2018-05-02T15:43:29.428Z,17.30
2018-05-02T15:45:57.653Z,17.30
2018-05-02T15:48:25.088Z,17.30
2018-05-02T15:50:53.321Z,17.30
2018-05-02T15:53:20.765Z,17.30
2018-05-02T15:55:48.724Z,17.30
2018-05-02T15:58:17.045Z,17.20
2018-05-02T16:00:44.429Z,17.20
2018-05-02T16:03:11.864Z,17.20
2018-05-02T16:05:39.320Z,17.10
2018-05-02T16:08:07.532Z,17.10
2018-05-02T16:10:34.988Z,17.10
2018-05-02T16:13:02.432Z,17.10
2018-05-02T16:15:30.660Z,17.00
2018-05-02T16:17:58.152Z,17.00
2018-05-02T16:20:25.600Z,16.90
2018-05-02T16:22:53.078Z,16.90
2018-05-02T16:25:20.532Z,16.90
2018-05-02T16:27:48.115Z,16.80
2018-05-02T16:30:15.439Z,16.80
2018-05-02T16:32:43.663Z,16.70
2018-05-02T16:35:11.107Z,16.70
2018-05-02T16:37:38.590Z,16.70
2018-05-02T16:40:06.028Z,16.70
2018-05-02T16:42:34.253Z,16.70
2018-05-02T16:45:02.483Z,16.70
2018-05-02T16:47:29.876Z,16.60
2018-05-02T16:49:58.100Z,16.60
2018-05-02T16:52:25.561Z,16.60
2018-05-02T16:54:53.410Z,16.60
2018-05-02T16:57:21.840Z,16.50
2018-05-02T16:59:49.284Z,16.50
2018-05-02T17:02:16.742Z,16.40
2018-05-02T17:04:45.031Z,16.30
2018-05-02T17:07:12.414Z,16.30
2018-05-02T17:09:39.861Z,16.30
2018-05-02T17:12:08.085Z,16.20
2018-05-02T17:14:35.538Z,16.20
2018-05-02T17:17:03.009Z,16.10
2018-05-02T17:19:30.458Z,16.20
2018-05-02T17:21:58.751Z,16.10
2018-05-02T17:24:26.146Z,16.10
2018-05-02T17:26:53.592Z,16.20
2018-05-02T17:29:21.818Z,16.10
2018-05-02T17:31:49.269Z,16.00
2018-05-02T17:34:16.718Z,16.00
2018-05-02T17:36:44.189Z,15.90
2018-05-02T17:39:12.396Z,15.80
2018-05-02T17:41:39.853Z,15.80
2018-05-02T17:44:07.292Z,15.80
2018-05-02T17:46:35.524Z,15.70
2018-05-02T17:49:02.975Z,15.70
2018-05-02T17:51:30.437Z,15.60
2018-05-02T17:53:57.957Z,15.50
2018-05-02T17:56:25.416Z,15.50
2018-05-02T17:58:52.858Z,15.50
2018-05-02T18:01:20.317Z,15.50
2018-05-02T18:03:47.792Z,15.40
2018-05-02T18:06:15.988Z,15.40
2018-05-02T18:08:43.441Z,15.40
2018-05-02T18:11:10.897Z,15.40
2018-05-02T18:13:39.157Z,15.30
2018-05-02T18:16:06.704Z,15.30
2018-05-02T18:18:34.112Z,15.40
2018-05-02T18:21:02.097Z,15.30
2018-05-02T18:23:30.324Z,15.30
2018-05-02T18:25:57.768Z,15.20
2018-05-02T18:28:25.984Z,15.20
2018-05-02T18:30:53.440Z,15.20
2018-05-02T18:33:20.885Z,15.20
2018-05-02T18:35:49.092Z,15.20
2018-05-02T18:38:16.549Z,15.20
2018-05-02T18:40:44.001Z,15.20
2018-05-02T18:43:12.237Z,15.10
2018-05-02T18:45:39.710Z,15.10
2018-05-02T18:48:07.184Z,15.10
2018-05-02T18:50:34.628Z,15.30
2018-05-02T18:53:02.101Z,15.20
2018-05-02T18:55:30.721Z,15.00
2018-05-02T18:57:58.181Z,15.00
2018-05-02T19:00:25.646Z,15.00
2018-05-02T19:02:53.109Z,14.80
2018-05-02T19:05:20.562Z,14.80
2018-05-02T19:07:48.231Z,14.80
2018-05-02T19:10:15.712Z,14.70
2018-05-02T19:12:43.928Z,14.80
2018-05-02T19:15:12.029Z,14.80
2018-05-02T19:17:45.199Z,14.70
2018-05-02T19:20:18.352Z,14.60
2018-05-02T19:22:45.839Z,14.60
2018-05-02T19:25:19.029Z,14.60
2018-05-02T19:27:46.484Z,14.50
2018-05-02T19:30:13.933Z,14.50
2018-05-02T19:32:47.205Z,14.40
2018-05-02T19:35:14.657Z,14.30
2018-05-02T19:37:42.874Z,14.30
2018-05-02T19:40:15.953Z,14.30
2018-05-02T19:42:49.184Z,14.40
2018-05-02T19:45:16.621Z,14.30
2018-05-02T19:47:44.890Z,14.30
2018-05-02T19:50:12.325Z,14.30
2018-05-02T19:52:45.680Z,14.30
2018-05-02T19:55:13.913Z,14.30
2018-05-02T19:57:41.364Z,14.30
2018-05-02T20:03:12.303Z,14.30
2018-05-02T20:05:39.833Z,14.30
2018-05-02T20:08:13.027Z,14.20
2018-05-02T20:10:46.863Z,14.10
2018-05-02T20:13:20.002Z,14.10
2018-05-02T20:15:48.295Z,14.10
2018-05-02T20:18:16.535Z,14.10
2018-05-02T20:20:44.371Z,14.10
2018-05-02T20:23:11.834Z,14.10
2018-05-02T20:25:39.298Z,14.00
2018-05-02T20:28:08.494Z,14.00
2018-05-02T20:30:35.954Z,14.00
2018-05-02T20:33:03.427Z,14.00
2018-05-02T20:35:30.882Z,14.00
2018-05-02T20:37:58.346Z,14.00
2018-05-02T20:40:25.859Z,14.00
2018-05-02T20:42:54.089Z,14.10
2018-05-02T20:45:21.687Z,14.00
2018-05-02T20:47:50.024Z,14.20
2018-05-02T20:50:45.552Z,14.10
2018-05-02T20:53:13.771Z,14.20
2018-05-02T20:55:41.990Z,14.30
2018-05-02T20:58:09.550Z,14.20
2018-05-02T21:00:37.056Z,14.30
2018-05-02T21:03:05.299Z,14.20
2018-05-02T21:05:32.781Z,14.20
2018-05-02T21:08:00.245Z,14.20
2018-05-02T21:10:28.482Z,14.20
2018-05-02T21:12:55.998Z,14.20
2018-05-02T21:15:23.514Z,14.30
2018-05-02T21:17:51.016Z,14.40
2018-05-02T21:20:19.238Z,14.40
2018-05-02T21:22:47.092Z,14.40
2018-05-02T21:25:14.612Z,14.40
2018-05-02T21:27:42.850Z,14.40
2018-05-02T21:30:10.310Z,14.30
2018-05-02T21:32:39.672Z,14.50
2018-05-02T21:35:07.138Z,14.40
2018-05-02T21:37:36.661Z,14.60
2018-05-02T21:40:11.877Z,14.60
2018-05-02T21:42:44.301Z,14.60
2018-05-02T21:45:11.775Z,14.60
2018-05-02T21:47:48.578Z,14.60
2018-05-02T21:50:16.074Z,14.60
2018-05-02T21:52:45.491Z,14.80
2018-05-02T21:55:13.894Z,14.80
2018-05-02T21:57:42.166Z,14.70
2018-05-02T22:00:09.730Z,14.60
2018-05-02T22:02:37.196Z,14.60
2018-05-02T22:05:04.662Z,14.60
2018-05-02T22:07:32.885Z,14.50
2018-05-02T22:10:00.466Z,14.50
2018-05-02T22:12:27.929Z,14.50
2018-05-02T22:14:55.403Z,14.50
2018-05-02T22:17:22.854Z,14.50
2018-05-02T22:19:50.333Z,14.40
2018-05-02T22:22:17.782Z,14.40
2018-05-02T22:24:46.020Z,14.50
2018-05-02T22:27:13.483Z,14.50
2018-05-02T22:29:40.954Z,14.50
2018-05-02T22:32:08.422Z,14.50
2018-05-02T22:34:35.905Z,14.40
2018-05-02T22:37:04.170Z,14.40
2018-05-02T22:39:32.458Z,14.40
2018-05-02T22:42:00.698Z,14.30
2018-05-02T22:44:28.187Z,14.20
2018-05-02T22:46:56.414Z,14.10
2018-05-02T22:49:23.897Z,14.10
2018-05-02T22:51:51.347Z,14.00
2018-05-02T22:54:18.824Z,14.00
2018-05-02T22:56:46.275Z,13.90
2018-05-02T22:59:13.838Z,13.90
2018-05-02T23:01:41.374Z,13.80
2018-05-02T23:04:09.161Z,13.90
2018-05-02T23:06:36.627Z,13.80
2018-05-02T23:09:04.101Z,14.00
2018-05-02T23:11:31.541Z,14.00
2018-05-02T23:13:59.018Z,13.90
2018-05-02T23:16:27.243Z,13.90
2018-05-02T23:18:54.705Z,13.90
2018-05-02T23:21:22.274Z,13.80
2018-05-02T23:23:49.930Z,13.90
2018-05-02T23:26:17.386Z,13.90
2018-05-02T23:28:44.859Z,13.80
2018-05-02T23:31:12.322Z,13.70
2018-05-02T23:33:39.810Z,13.60
2018-05-02T23:36:08.062Z,13.60
2018-05-02T23:38:35.502Z,13.60
2018-05-02T23:41:02.958Z,13.60
2018-05-02T23:43:30.490Z,13.60
2018-05-02T23:45:57.955Z,13.60
2018-05-02T23:48:25.429Z,13.60
2018-05-02T23:50:52.894Z,13.60
2018-05-02T23:53:20.402Z,13.60
2018-05-02T23:55:48.626Z,13.70
2018-05-02T23:58:16.089Z,13.70
